Time;durP1;ratioP1;P1;durP2;ratioP2;P2;SDS_P1;SDS_P2;PMS_P1;PMS_P2;Temp;Humidity;BMP_temperature;BMP_pressure;BME280_temperature;BME280_humidity;BME280_pressure;Samples;Min_cycle;Max_cycle;Signal;HPM_P1;HPM_P2
2021/03/20 00:01:34;;;;;;;;;;;;;;;-1.86;100.00;99329.60;1704699;84;20665;-75
2021/03/20 00:04:02;;;;;;;;;;;;;;;-1.87;100.00;99326.16;1704621;84;20460;-74
2021/03/20 00:06:33;;;;;;;;;;;;;;;-1.90;100.00;99323.89;1704655;84;20138;-74
2021/03/20 00:09:01;;;;;;;;;;;;;;;-1.92;100.00;99327.20;1704506;84;20320;-73
2021/03/20 00:11:28;;;;;;;;;;;;;;;-1.91;100.00;99326.22;1704461;84;20125;-75
2021/03/20 00:13:58;;;;;;;;;;;;;;;-1.95;100.00;99325.73;1700909;83;20816;-75
2021/03/20 00:16:26;;;;;;;;;;;;;;;-1.95;100.00;99322.30;1704078;84;20158;-75
2021/03/20 00:18:54;;;;;;;;;;;;;;;-1.98;100.00;99323.98;1703072;84;20507;-74
2021/03/20 00:21:22;;;;;;;;;;;;;;;-2.00;100.00;99324.14;1711170;82;20506;-74
2021/03/20 00:23:49;;;;;;;;;;;;;;;-2.02;100.00;99318.23;1714406;83;20152;-74
2021/03/20 00:26:17;;;;;;;;;;;;;;;-2.03;100.00;99324.51;1714394;83;21256;-75
2021/03/20 00:28:45;;;;;;;;;;;;;;;-2.08;100.00;99321.59;1714493;83;20626;-75
2021/03/20 00:31:12;;;;;;;;;;;;;;;-2.10;100.00;99321.45;1714426;83;20168;-74
2021/03/20 00:33:42;;;;;;;;;;;;;;;-2.12;100.00;99323.44;1714401;83;20223;-74
2021/03/20 00:36:11;;;;;;;;;;;;;;;-2.18;100.00;99325.78;1714439;83;20155;-74
2021/03/20 00:38:38;;;;;;;;;;;;;;;-2.21;100.00;99322.17;1714406;83;22197;-74
2021/03/20 00:41:08;;;;;;;;;;;;;;;-2.22;100.00;99323.17;1714407;83;20164;-74
2021/03/20 00:43:37;;;;;;;;;;;;;;;-2.23;100.00;99325.97;1714552;83;20164;-73
2021/03/20 00:46:06;;;;;;;;;;;;;;;-2.25;100.00;99327.98;1714488;83;20344;-73
2021/03/20 00:48:36;;;;;;;;;;;;;;;-2.26;100.00;99325.02;1714483;83;20160;-73
2021/03/20 00:51:05;;;;;;;;;;;;;;;-2.27;100.00;99324.70;1714613;83;22230;-74
2021/03/20 00:53:32;;;;;;;;;;;;;;;-2.28;100.00;99324.38;1714695;83;20144;-75
2021/03/20 00:56:01;;;;;;;;;;;;;;;-2.30;100.00;99318.47;1714663;83;20219;-74
2021/03/20 00:58:34;;;;;;;;;;;;;;;-2.34;100.00;99314.58;1714578;83;20168;-74
2021/03/20 01:01:08;;;;;;;;;;;;;;;-2.33;100.00;99320.14;1714634;83;20601;-75
2021/03/20 01:03:38;;;;;;;;;;;;;;;-2.31;100.00;99316.34;1714312;83;20517;-73
2021/03/20 01:06:07;;;;;;;;;;;;;;;-2.31;100.00;99314.22;1714489;83;20558;-73
2021/03/20 01:08:36;;;;;;;;;;;;;;;-2.33;100.00;99320.14;1714404;83;20171;-73
2021/03/20 01:11:04;;;;;;;;;;;;;;;-2.34;100.00;99318.52;1714513;83;20335;-73
2021/03/20 01:13:32;;;;;;;;;;;;;;;-2.33;100.00;99322.77;1714454;83;20172;-73
2021/03/20 01:16:00;;;;;;;;;;;;;;;-2.37;100.00;99320.50;1690285;83;21357;-74
2021/03/20 01:18:27;;;;;;;;;;;;;;;-2.36;100.00;99323.94;1714392;83;20179;-73
2021/03/20 01:20:55;;;;;;;;;;;;;;;-2.36;100.00;99322.63;1720141;82;20552;-74
2021/03/20 01:23:23;;;;;;;;;;;;;;;-2.37;100.00;99324.95;1729237;83;20159;-73
2021/03/20 01:25:50;;;;;;;;;;;;;;;-2.38;100.00;99317.56;1729397;83;20234;-73
2021/03/20 01:28:21;;;;;;;;;;;;;;;-2.37;100.00;99328.89;1729340;83;21275;-73
2021/03/20 01:30:48;;;;;;;;;;;;;;;-2.38;100.00;99323.30;1729240;83;20135;-73
2021/03/20 01:33:16;;;;;;;;;;;;;;;-2.39;100.00;99331.69;1729351;83;20162;-73
2021/03/20 01:35:44;;;;;;;;;;;;;;;-2.43;100.00;99323.00;1729313;83;20187;-73
2021/03/20 01:38:11;;;;;;;;;;;;;;;-2.42;100.00;99325.47;1729296;83;20203;-73
2021/03/20 01:40:41;;;;;;;;;;;;;;;-2.41;100.00;99322.34;1729352;83;21202;-73
2021/03/20 01:43:14;;;;;;;;;;;;;;;-2.42;100.00;99325.97;1729391;83;20659;-72
2021/03/20 01:45:42;;;;;;;;;;;;;;;-2.36;100.00;99327.88;1729427;83;20518;-73
2021/03/20 01:48:31;;;;;;;;;;;;;;;-2.39;100.00;99327.73;1729352;83;20163;-72
2021/03/20 01:51:00;;;;;;;;;;;;;;;-2.39;100.00;99326.42;1729432;83;20266;-73
2021/03/20 01:53:39;;;;;;;;;;;;;;;-2.39;100.00;99329.55;1729462;83;22117;-73
2021/03/20 01:56:10;;;;;;;;;;;;;;;-2.39;100.00;99333.50;1729309;83;20154;-73
2021/03/20 01:58:39;;;;;;;;;;;;;;;-2.38;100.00;99339.06;1729353;83;20147;-73
2021/03/20 02:01:26;;;;;;;;;;;;;;;-2.39;100.00;99342.20;1729289;83;20202;-73
2021/03/20 02:03:54;;;;;;;;;;;;;;;-2.41;100.00;99339.42;1729326;83;20175;-73
2021/03/20 02:06:22;;;;;;;;;;;;;;;-2.42;100.00;99343.88;1729352;83;21379;-73
2021/03/20 02:08:49;;;;;;;;;;;;;;;-2.44;100.00;99334.02;1729262;83;20163;-73
2021/03/20 02:11:30;;;;;;;;;;;;;;;-2.42;100.00;99343.88;1729416;83;20521;-73
2021/03/20 02:14:04;;;;;;;;;;;;;;;-2.40;100.00;99347.62;1729347;83;20167;-72
2021/03/20 02:16:47;;;;;;;;;;;;;;;-2.41;100.00;99351.25;1729336;83;20194;-73
2021/03/20 02:19:51;;;;;;;;;;;;;;;-2.41;100.00;99344.17;1729292;83;21735;-73
2021/03/20 02:22:24;;;;;;;;;;;;;;;-2.42;100.00;99350.94;1716812;82;20640;-73
2021/03/20 02:25:11;;;;;;;;;;;;;;;-2.43;100.00;99346.16;1714399;83;20521;-73
2021/03/20 02:28:15;;;;;;;;;;;;;;;-2.42;100.00;99349.12;1714384;83;20189;-73
2021/03/20 02:31:03;;;;;;;;;;;;;;;-2.42;100.00;99356.20;1654650;86;20244;-73
2021/03/20 02:33:54;;;;;;;;;;;;;;;-2.46;100.00;99362.28;1654433;86;21390;-72
2021/03/20 02:37:00;;;;;;;;;;;;;;;-2.47;100.00;99352.78;1626395;88;20250;-72
2021/03/20 02:39:47;;;;;;;;;;;;;;;-2.49;100.00;99356.07;1654367;86;20157;-73
2021/03/20 02:42:51;;;;;;;;;;;;;;;-2.50;100.00;99353.13;1626494;88;20252;-73
2021/03/20 02:45:25;;;;;;;;;;;;;;;-2.49;100.00;99356.58;1654377;86;20244;-73
2021/03/20 02:48:23;;;;;;;;;;;;;;;-2.55;100.00;99358.56;1626454;88;21398;-74
2021/03/20 02:51:05;;;;;;;;;;;;;;;-2.58;100.00;99359.73;1668322;86;20266;-73
2021/03/20 02:53:44;;;;;;;;;;;;;;;-2.60;100.00;99361.23;1668371;86;20358;-73
2021/03/20 02:56:22;;;;;;;;;;;;;;;-2.57;100.00;99362.70;1853623;77;20307;-71
2021/03/20 02:59:11;;;;;;;;;;;;;;;-2.63;100.00;99363.38;1822759;78;20128;-71
2021/03/20 03:01:40;;;;;;;;;;;;;;;-2.66;100.00;99361.11;1795690;78;21936;-72
2021/03/20 03:04:10;;;;;;;;;;;;;;;-2.66;100.00;99363.73;1822525;78;20203;-72
2021/03/20 03:06:42;;;;;;;;;;;;;;;-2.70;100.00;99363.24;1822714;78;20153;-72
2021/03/20 03:09:18;;;;;;;;;;;;;;;-2.71;100.00;99368.19;1822671;78;20267;-72
2021/03/20 03:11:58;;;;;;;;;;;;;;;-2.71;100.00;99364.75;1822017;78;20172;-72
2021/03/20 03:14:45;;;;;;;;;;;;;;;-2.72;100.00;99368.34;1822573;78;21363;-72
2021/03/20 03:17:13;;;;;;;;;;;;;;;-2.72;100.00;99370.50;1822543;78;20180;-72
2021/03/20 03:19:53;;;;;;;;;;;;;;;-2.71;100.00;99372.62;1822661;78;20136;-72
2021/03/20 03:22:27;;;;;;;;;;;;;;;-2.73;100.00;99372.79;1822520;78;20243;-72
2021/03/20 03:24:58;;;;;;;;;;;;;;;-2.71;100.00;99372.12;1822577;78;20156;-72
2021/03/20 03:27:25;;;;;;;;;;;;;;;-2.72;100.00;99371.81;1822585;78;21421;-72
2021/03/20 03:29:53;;;;;;;;;;;;;;;-2.71;100.00;99376.57;1822519;78;20169;-72
2021/03/20 03:32:35;;;;;;;;;;;;;;;-2.71;100.00;99376.57;1822652;78;20137;-72
2021/03/20 03:35:25;;;;;;;;;;;;;;;-2.70;100.00;99373.75;1822554;78;20168;-72
2021/03/20 03:38:17;;;;;;;;;;;;;;;-2.72;100.00;99377.08;1822606;78;20136;-72
2021/03/20 03:41:09;;;;;;;;;;;;;;;-2.70;100.00;99380.32;1747937;82;21214;-72
2021/03/20 03:43:37;;;;;;;;;;;;;;;-2.66;100.00;99383.44;1747921;82;20146;-72
2021/03/20 03:46:05;;;;;;;;;;;;;;;-2.68;100.00;99374.41;1747933;82;20201;-72
2021/03/20 03:48:33;;;;;;;;;;;;;;;-2.68;100.00;99374.41;1746589;82;20233;-73
2021/03/20 03:51:15;;;;;;;;;;;;;;;-2.68;100.00;99373.59;1747948;82;20233;-73
2021/03/20 03:53:43;;;;;;;;;;;;;;;-2.70;100.00;99380.32;1747810;82;21465;-72
2021/03/20 03:56:14;;;;;;;;;;;;;;;-2.66;100.00;99386.06;1761080;80;20244;-72
2021/03/20 03:59:03;;;;;;;;;;;;;;;-2.61;100.00;99380.61;1853617;77;20177;-71
2021/03/20 04:01:51;;;;;;;;;;;;;;;-2.64;100.00;99377.52;1822029;78;20164;-72
2021/03/20 04:04:44;;;;;;;;;;;;;;;-2.67;100.00;99390.98;1822609;78;21367;-73
2021/03/20 04:07:15;;;;;;;;;;;;;;;-2.66;100.00;99384.75;1822538;78;20132;-73
2021/03/20 04:09:58;;;;;;;;;;;;;;;-2.69;100.00;99384.60;1822611;78;20597;-71
2021/03/20 04:13:03;;;;;;;;;;;;;;;-2.66;100.00;99390.01;1799742;78;20534;-72
2021/03/20 04:15:55;;;;;;;;;;;;;;;-2.68;100.00;99386.23;1822687;78;20507;-73
2021/03/20 04:18:46;;;;;;;;;;;;;;;-2.65;100.00;99387.19;1822577;78;21364;-72
2021/03/20 04:21:23;;;;;;;;;;;;;;;-2.67;100.00;99384.41;1822503;78;20152;-72
2021/03/20 04:24:14;;;;;;;;;;;;;;;-2.68;100.00;99386.23;1822610;78;20510;-72
2021/03/20 04:27:00;;;;;;;;;;;;;;;-2.68;100.00;99394.61;1822578;78;20146;-73
2021/03/20 04:29:40;;;;;;;;;;;;;;;-2.69;100.00;99391.67;1822638;78;20124;-73
2021/03/20 04:32:34;;;;;;;;;;;;;;;-2.70;100.00;99392.64;1822550;78;21135;-72
2021/03/20 04:35:06;;;;;;;;;;;;;;;-2.70;100.00;99399.21;1822661;78;20642;-72
2021/03/20 04:37:37;;;;;;;;;;;;;;;-2.72;100.00;99402.03;1822507;78;20181;-72
2021/03/20 04:40:07;;;;;;;;;;;;;;;-2.73;100.00;99403.00;1822544;78;20172;-72
2021/03/20 04:42:37;;;;;;;;;;;;;;;-2.71;100.00;99414.67;1822529;78;20164;-72
2021/03/20 04:45:09;;;;;;;;;;;;;;;-2.71;100.00;99411.53;1791317;78;20522;-72
2021/03/20 04:47:37;;;;;;;;;;;;;;;-2.69;100.00;99411.38;1822168;78;20630;-72
2021/03/20 04:50:20;;;;;;;;;;;;;;;-2.70;100.00;99414.48;1822675;78;20546;-72
2021/03/20 04:52:48;;;;;;;;;;;;;;;-2.66;100.00;99417.09;1822483;78;20184;-72
2021/03/20 04:55:16;;;;;;;;;;;;;;;-2.64;100.00;99422.19;1822498;78;20156;-72
2021/03/20 04:57:50;;;;;;;;;;;;;;;-2.63;100.00;99415.93;1822319;78;22296;-72
2021/03/20 05:00:38;;;;;;;;;;;;;;;-2.62;100.00;99413.14;1822543;78;20160;-73
2021/03/20 05:03:21;;;;;;;;;;;;;;;-2.56;100.00;99417.39;1822537;78;20133;-72
2021/03/20 05:05:54;;;;;;;;;;;;;;;-2.55;100.00;99419.82;1821464;78;20171;-72
2021/03/20 05:08:31;;;;;;;;;;;;;;;-2.51;100.00;99425.06;1822421;78;20144;-72
2021/03/20 05:11:22;;;;;;;;;;;;;;;-2.48;100.00;99423.91;1822000;78;21740;-72
2021/03/20 05:14:12;;;;;;;;;;;;;;;-2.46;100.00;99424.55;1821954;78;20172;-72
2021/03/20 05:16:42;;;;;;;;;;;;;;;-2.42;100.00;99429.80;1822023;78;20153;-72
2021/03/20 05:19:09;;;;;;;;;;;;;;;-2.39;100.00;99428.13;1822020;78;20499;-72
2021/03/20 05:21:42;;;;;;;;;;;;;;;-2.33;100.00;99434.50;1822008;78;20156;-72
2021/03/20 05:24:22;;;;;;;;;;;;;;;-2.27;100.00;99443.02;1822032;78;22072;-72
2021/03/20 05:26:51;;;;;;;;;;;;;;;-2.20;100.00;99442.16;1821911;78;20176;-72
2021/03/20 05:29:18;;;;;;;;;;;;;;;-2.13;100.00;99445.39;1821939;78;20168;-72
2021/03/20 05:31:46;;;;;;;;;;;;;;;-2.05;100.00;99446.67;1821992;78;20168;-73
2021/03/20 05:34:20;;;;;;;;;;;;;;;-1.98;100.00;99448.92;1821991;78;20172;-73
2021/03/20 05:36:56;;;;;;;;;;;;;;;-1.95;100.00;99449.88;1821984;78;22294;-72
2021/03/20 05:39:25;;;;;;;;;;;;;;;-1.91;100.00;99457.75;1783551;80;20147;-72
2021/03/20 05:42:26;;;;;;;;;;;;;;;-1.76;100.00;99453.86;1783672;80;20568;-72
2021/03/20 05:45:09;;;;;;;;;;;;;;;-1.68;100.00;99456.42;1783652;80;20520;-73
2021/03/20 05:48:02;;;;;;;;;;;;;;;-1.66;100.00;99458.88;1783719;80;20502;-73
2021/03/20 05:50:43;;;;;;;;;;;;;;;-1.64;100.00;99461.66;1783631;80;21373;-73
2021/03/20 05:53:35;;;;;;;;;;;;;;;-1.54;100.00;99457.47;1783680;80;20524;-73
2021/03/20 05:56:30;;;;;;;;;;;;;;;-1.51;100.00;99455.28;1783030;80;20329;-73
2021/03/20 05:59:23;;;;;;;;;;;;;;;-1.30;100.00;99460.36;1764833;80;20502;-73
2021/03/20 06:01:57;;;;;;;;;;;;;;;-1.09;100.00;99460.48;1783693;80;20226;-73
2021/03/20 06:04:38;;;;;;;;;;;;;;;-1.04;100.00;99462.58;1748913;81;21273;-74
2021/03/20 06:07:40;;;;;;;;;;;;;;;-0.76;100.00;99476.44;1855005;77;20241;-73
2021/03/20 06:10:42;;;;;;;;;;;;;;;-0.68;100.00;99476.36;1822611;78;20129;-73
2021/03/20 06:13:34;;;;;;;;;;;;;;;-0.73;100.00;99484.81;1821055;78;20157;-73
2021/03/20 06:16:28;;;;;;;;;;;;;;;-0.93;100.00;99491.59;1822513;78;20148;-73
2021/03/20 06:19:03;;;;;;;;;;;;;;;-0.97;100.00;99487.20;1822599;78;20200;-73
2021/03/20 06:21:57;;;;;;;;;;;;;;;-1.02;100.00;99483.48;1822655;78;20133;-74
2021/03/20 06:24:50;;;;;;;;;;;;;;;-1.02;100.00;99494.02;1822753;78;20137;-74
2021/03/20 06:27:23;;;;;;;;;;;;;;;-0.86;100.00;99489.87;1823256;78;21492;-73
2021/03/20 06:30:28;;;;;;;;;;;;;;;-0.87;100.00;99500.93;1807421;78;20231;-74
2021/03/20 06:33:07;;;;;;;;;;;;;;;-0.88;100.00;99499.30;1822560;78;20128;-74
2021/03/20 06:36:01;;;;;;;;;;;;;;;-0.87;100.00;99496.16;1847557;76;20171;-72
2021/03/20 06:38:48;;;;;;;;;;;;;;;-1.00;100.00;99506.02;1858465;77;20477;-73
2021/03/20 06:41:47;;;;;;;;;;;;;;;-1.05;100.00;99507.05;1856077;77;20939;-74
2021/03/20 06:44:56;;;;;;;;;;;;;;;-0.96;100.00;99509.09;1847531;77;20560;-74
2021/03/20 08:11:36;;;;;;;;;;;;;;;-0.44;100.00;99575.46;1819679;78;20176;-75
2021/03/20 08:14:33;;;;;;;;;;;;;;;-0.41;100.00;99580.88;1792790;80;20171;-74
2021/03/20 08:17:30;;;;;;;;;;;;;;;-0.34;100.00;99573.36;1792482;80;21443;-73
2021/03/20 08:20:19;;;;;;;;;;;;;;;-0.35;100.00;99575.66;1793194;80;20218;-72
2021/03/20 08:22:52;;;;;;;;;;;;;;;-0.31;100.00;99579.59;1792424;80;20135;-72
2021/03/20 08:26:02;;;;;;;;;;;;;;;-0.21;100.00;99577.98;1793032;80;20190;-73
2021/03/20 08:29:02;;;;;;;;;;;;;;;-0.18;100.00;99583.40;1766299;80;20253;-73
2021/03/20 08:31:44;;;;;;;;;;;;;;;-0.08;100.00;99585.25;1684633;84;20698;-75
2021/03/20 08:34:26;;;;;;;;;;;;;;;0.08;100.00;99579.77;1685061;85;20146;-74
2021/03/20 08:37:01;;;;;;;;;;;;;;;0.33;100.00;99577.61;1684446;85;20182;-74
2021/03/20 08:40:07;;;;;;;;;;;;;;;0.46;100.00;99586.17;1684933;85;20150;-74
2021/03/20 08:43:03;;;;;;;;;;;;;;;0.43;100.00;99579.95;1853797;77;20311;-74
2021/03/20 08:45:45;;;;;;;;;;;;;;;0.27;100.00;99592.05;1822247;78;20149;-74
2021/03/20 08:48:38;;;;;;;;;;;;;;;0.42;100.00;99589.70;1820970;78;22176;-74
2021/03/20 08:51:28;;;;;;;;;;;;;;;0.50;100.00;99587.45;1821624;78;20212;-74
2021/03/20 08:54:00;;;;;;;;;;;;;;;0.27;100.00;99586.77;1820599;78;20146;-74
2021/03/20 08:56:46;;;;;;;;;;;;;;;0.29;100.00;99582.94;1820388;78;20121;-74
2021/03/20 08:59:24;;;;;;;;;;;;;;;0.51;100.00;99589.06;1821331;78;20180;-74
2021/03/20 09:02:15;;;;;;;;;;;;;;;0.59;100.00;99587.65;1821708;78;21139;-74
2021/03/20 09:04:45;;;;;;;;;;;;;;;0.52;100.00;99589.41;1817248;78;20169;-74
2021/03/20 09:07:17;;;;;;;;;;;;;;;0.12;100.00;99584.17;1810177;78;20488;-72
2021/03/20 09:09:47;;;;;;;;;;;;;;;0.04;100.00;99587.73;1801656;78;20232;-73
2021/03/20 09:12:28;;;;;;;;;;;;;;;0.07;100.00;99583.40;1797858;78;20254;-73
2021/03/20 09:14:56;;;;;;;;;;;;;;;0.11;100.00;99587.82;1801906;78;22316;-73
2021/03/20 09:17:31;;;;;;;;;;;;;;;0.22;100.00;99588.64;1794705;78;20236;-73
2021/03/20 09:20:07;;;;;;;;;;;;;;;0.33;100.00;99597.92;1792734;78;20226;-72
2021/03/20 09:22:35;;;;;;;;;;;;;;;0.41;100.00;99598.61;1787931;79;20241;-71
2021/03/20 09:25:08;;;;;;;;;;;;;;;0.20;100.00;99599.92;1792902;78;20261;-72
2021/03/20 09:28:16;;;;;;;;;;;;;;;0.02;100.00;99593.69;1764295;78;21211;-73
2021/03/20 09:31:01;;;;;;;;;;;;;;;0.25;100.00;99594.09;1756771;80;21051;-72
2021/03/20 09:33:46;;;;;;;;;;;;;;;0.25;100.00;99591.45;1797671;78;20218;-72
2021/03/20 09:36:24;;;;;;;;;;;;;;;0.40;100.00;99593.54;1813335;78;20494;-72
2021/03/20 09:38:57;;;;;;;;;;;;;;;0.62;100.00;99592.55;1821448;78;20523;-73
2021/03/20 09:41:31;;;;;;;;;;;;;;;0.52;100.00;99598.64;1822651;78;21188;-73
2021/03/20 09:44:07;;;;;;;;;;;;;;;0.56;100.00;99591.96;1827313;78;20200;-73
2021/03/20 09:46:45;;;;;;;;;;;;;;;0.73;100.00;99593.86;1827367;78;20184;-71
2021/03/20 09:49:22;;;;;;;;;;;;;;;0.99;100.00;99598.58;1814121;78;20202;-73
2021/03/20 09:51:54;;;;;;;;;;;;;;;1.10;100.00;99599.06;1794705;80;20274;-74
2021/03/20 09:54:29;;;;;;;;;;;;;;;1.09;100.00;99598.77;1794022;80;20827;-74
2021/03/20 09:57:18;;;;;;;;;;;;;;;1.03;100.00;99597.20;1793970;80;21208;-74
2021/03/20 09:59:46;;;;;;;;;;;;;;;1.24;100.00;99602.13;1793633;80;20225;-74
2021/03/20 10:02:27;;;;;;;;;;;;;;;1.29;100.00;99597.08;1794085;80;20186;-72
2021/03/20 10:05:18;;;;;;;;;;;;;;;1.40;100.00;99599.21;1790591;78;20305;-72
2021/03/20 10:08:17;;;;;;;;;;;;;;;1.69;100.00;99606.59;1793973;80;21647;-72
2021/03/20 10:10:50;;;;;;;;;;;;;;;1.33;100.00;99607.59;1793011;80;20265;-73
2021/03/20 10:13:23;;;;;;;;;;;;;;;1.12;100.00;99610.27;1793843;80;20166;-74
2021/03/20 10:15:59;;;;;;;;;;;;;;;1.62;100.00;99610.55;1790357;80;20282;-74
2021/03/20 10:18:57;;;;;;;;;;;;;;;2.01;100.00;99616.23;1788987;80;20302;-74
2021/03/20 10:21:28;;;;;;;;;;;;;;;2.29;100.00;99614.84;1794388;80;22313;-75
2021/03/20 10:24:23;;;;;;;;;;;;;;;2.78;100.00;99609.78;1794168;80;20226;-74
2021/03/20 10:27:05;;;;;;;;;;;;;;;3.19;94.19;99612.27;1794565;80;20242;-74
2021/03/20 10:29:36;;;;;;;;;;;;;;;3.72;96.32;99614.55;1793801;80;20604;-75
2021/03/20 10:32:16;;;;;;;;;;;;;;;4.14;93.50;99613.23;1796152;78;20220;-73
2021/03/20 10:34:53;;;;;;;;;;;;;;;4.32;89.45;99623.16;1821175;78;21414;-73
2021/03/20 10:37:24;;;;;;;;;;;;;;;3.78;85.93;99609.23;1820579;78;20216;-73
2021/03/20 10:40:11;;;;;;;;;;;;;;;3.73;89.63;99607.72;1794291;80;20228;-73
2021/03/20 10:42:46;;;;;;;;;;;;;;;3.67;91.98;99605.88;1796439;80;20279;-73
2021/03/20 10:45:20;;;;;;;;;;;;;;;3.85;87.68;99606.58;1797623;79;20207;-74
2021/03/20 10:47:48;;;;;;;;;;;;;;;3.62;83.10;99609.67;1810272;79;21374;-74
2021/03/20 10:50:36;;;;;;;;;;;;;;;3.44;85.14;99603.68;1783723;79;20240;-72
2021/03/20 10:53:06;;;;;;;;;;;;;;;3.22;80.63;99608.39;1804481;79;20168;-72
2021/03/20 10:55:40;;;;;;;;;;;;;;;3.26;83.10;99602.98;1797100;79;20299;-73
2021/03/20 10:58:08;;;;;;;;;;;;;;;2.98;83.12;99599.19;1796529;79;20231;-73
2021/03/20 11:00:44;;;;;;;;;;;;;;;3.67;85.09;99594.45;1797581;80;22121;-72
2021/03/20 11:03:36;;;;;;;;;;;;;;;4.07;76.58;99599.15;1796630;79;20643;-74
2021/03/20 11:06:16;;;;;;;;;;;;;;;4.12;74.14;99590.55;1797551;79;20304;-74
2021/03/20 11:08:46;;;;;;;;;;;;;;;4.38;77.37;99593.06;1797454;80;20211;-72
2021/03/20 11:11:30;;;;;;;;;;;;;;;4.65;77.82;99590.27;1797293;79;20609;-73
2021/03/20 11:14:08;;;;;;;;;;;;;;;3.95;75.72;99592.34;1797294;80;21199;-73
2021/03/20 11:16:43;;;;;;;;;;;;;;;3.99;77.90;99586.08;1797274;79;20227;-74
2021/03/20 11:19:16;;;;;;;;;;;;;;;4.54;69.10;99588.30;1797246;80;20220;-73
2021/03/20 11:21:46;;;;;;;;;;;;;;;5.14;71.45;99585.53;1797460;79;20226;-73
2021/03/20 11:24:27;;;;;;;;;;;;;;;4.62;65.46;99586.71;1796533;80;20567;-74
2021/03/20 11:26:56;;;;;;;;;;;;;;;4.68;68.07;99579.23;1797012;79;21372;-72
2021/03/20 11:29:28;;;;;;;;;;;;;;;4.74;63.59;99574.36;1797503;78;20129;-73
2021/03/20 11:32:01;;;;;;;;;;;;;;;4.07;65.44;99573.39;1796912;80;20200;-73
2021/03/20 11:34:40;;;;;;;;;;;;;;;3.88;71.89;99569.49;1797488;79;20227;-73
2021/03/20 11:37:13;;;;;;;;;;;;;;;3.51;75.71;99579.80;1796084;79;20248;-73
2021/03/20 11:39:45;;;;;;;;;;;;;;;3.15;76.76;99570.44;1795755;79;21173;-73
2021/03/20 11:42:15;;;;;;;;;;;;;;;2.89;94.29;99571.23;1797100;79;20220;-73
2021/03/20 11:44:53;;;;;;;;;;;;;;;2.41;100.00;99570.87;1795677;80;20271;-73
2021/03/20 11:47:26;;;;;;;;;;;;;;;2.12;100.00;99570.67;1794900;80;20184;-73
2021/03/20 11:49:56;;;;;;;;;;;;;;;1.96;100.00;99550.67;1797059;78;20288;-73
2021/03/20 11:52:37;;;;;;;;;;;;;;;1.99;100.00;99574.61;1796895;80;21192;-72
2021/03/20 11:55:08;;;;;;;;;;;;;;;1.82;100.00;99574.12;1795549;78;20471;-73
2021/03/20 11:57:39;;;;;;;;;;;;;;;2.14;100.00;99568.14;1796738;79;20307;-73
2021/03/20 12:00:31;;;;;;;;;;;;;;;2.77;100.00;99567.07;1797285;79;20192;-71
2021/03/20 12:03:01;;;;;;;;;;;;;;;3.30;98.63;99576.33;1797149;80;20220;-73
2021/03/20 12:05:31;;;;;;;;;;;;;;;3.45;92.06;99573.45;1797121;79;21154;-73
2021/03/20 12:08:23;;;;;;;;;;;;;;;3.40;88.81;99567.95;1796582;79;20545;-74
2021/03/20 12:11:03;;;;;;;;;;;;;;;3.57;92.86;99570.98;1795415;80;20207;-73
2021/03/20 12:13:52;;;;;;;;;;;;;;;3.91;89.79;99574.37;1797659;80;20232;-73
2021/03/20 12:16:33;;;;;;;;;;;;;;;4.05;86.46;99570.65;1797498;79;20510;-71
2021/03/20 12:19:07;;;;;;;;;;;;;;;3.75;86.71;99575.63;1797279;78;21281;-71
2021/03/20 12:22:00;;;;;;;;;;;;;;;4.03;86.20;99566.86;1796836;79;20200;-73
2021/03/20 12:24:36;;;;;;;;;;;;;;;4.12;83.10;99562.66;1796626;79;20519;-73
2021/03/20 12:27:23;;;;;;;;;;;;;;;4.27;81.60;99566.66;1796796;79;20263;-71
2021/03/20 12:30:11;;;;;;;;;;;;;;;4.09;80.78;99561.21;1796373;79;20232;-72
2021/03/20 12:32:41;;;;;;;;;;;;;;;3.77;76.92;99566.95;1797035;79;22684;-72
2021/03/20 12:35:22;;;;;;;;;;;;;;;3.58;82.02;99566.00;1797440;80;20299;-71
2021/03/20 12:38:10;;;;;;;;;;;;;;;3.93;81.36;99566.50;1797435;79;20232;-73
2021/03/20 12:40:38;;;;;;;;;;;;;;;3.80;76.10;99563.91;1797285;80;20220;-72
2021/03/20 12:43:07;;;;;;;;;;;;;;;4.05;71.37;99560.03;1798911;78;20224;-72
2021/03/20 12:45:37;;;;;;;;;;;;;;;3.92;71.43;99562.23;1804173;78;21265;-73
2021/03/20 12:48:10;;;;;;;;;;;;;;;4.04;72.25;99561.03;1807390;78;20284;-73
2021/03/20 12:50:40;;;;;;;;;;;;;;;3.76;76.11;99557.38;1802524;78;20148;-71
2021/03/20 12:53:09;;;;;;;;;;;;;;;4.20;77.60;99561.89;1802565;78;20528;-72
2021/03/20 12:55:39;;;;;;;;;;;;;;;3.57;76.83;99560.38;1802000;78;20659;-71
2021/03/20 12:58:06;;;;;;;;;;;;;;;3.63;79.50;99566.19;1808339;78;22528;-72
2021/03/20 13:00:34;;;;;;;;;;;;;;;3.74;77.04;99555.43;1805920;78;21117;-72
2021/03/20 13:03:04;;;;;;;;;;;;;;;3.95;74.22;99557.01;1800450;78;20519;-73
2021/03/20 13:05:38;;;;;;;;;;;;;;;4.35;70.88;99560.80;1779769;78;20251;-72
2021/03/20 13:08:11;;;;;;;;;;;;;;;3.93;69.15;99563.03;1807274;78;20292;-72
2021/03/20 13:10:39;;;;;;;;;;;;;;;3.49;70.01;99564.06;1798434;78;21353;-72
2021/03/20 13:13:08;;;;;;;;;;;;;;;3.75;72.97;99547.27;1805757;78;20203;-72
2021/03/20 13:15:36;;;;;;;;;;;;;;;4.35;71.93;99556.30;1805144;78;20204;-73
2021/03/20 13:18:05;;;;;;;;;;;;;;;4.57;69.27;99559.44;1805843;78;20271;-72
2021/03/20 13:20:34;;;;;;;;;;;;;;;4.01;69.11;99551.64;1805293;78;20299;-73
2021/03/20 13:23:05;;;;;;;;;;;;;;;3.31;74.36;99557.28;1816213;78;21141;-73
2021/03/20 13:25:38;;;;;;;;;;;;;;;3.13;76.55;99559.20;1797082;80;20225;-73
2021/03/20 13:28:07;;;;;;;;;;;;;;;3.24;75.75;99555.14;1796740;80;20411;-72
2021/03/20 13:30:40;;;;;;;;;;;;;;;2.88;77.00;99553.71;1815221;78;20285;-73
2021/03/20 13:33:14;;;;;;;;;;;;;;;2.92;80.07;99543.83;1851929;77;20292;-71
2021/03/20 13:35:44;;;;;;;;;;;;;;;3.25;78.92;99550.13;1820795;77;20212;-71
2021/03/20 13:38:15;;;;;;;;;;;;;;;3.30;79.55;99550.32;1821469;78;21188;-72
2021/03/20 13:40:43;;;;;;;;;;;;;;;3.20;79.29;99549.41;1821431;78;20164;-73
2021/03/20 13:43:11;;;;;;;;;;;;;;;3.03;82.99;99555.64;1821740;78;20152;-71
2021/03/20 13:45:39;;;;;;;;;;;;;;;2.53;84.37;99543.28;1821492;78;20232;-72
2021/03/20 13:48:08;;;;;;;;;;;;;;;2.35;87.41;99553.11;1821257;78;20216;-71
2021/03/20 13:50:39;;;;;;;;;;;;;;;2.18;88.36;99545.22;1821772;78;21362;-72
2021/03/20 13:53:21;;;;;;;;;;;;;;;2.61;88.02;99544.92;1821557;78;20291;-72
2021/03/20 13:55:53;;;;;;;;;;;;;;;3.28;84.51;99558.48;1821044;78;20224;-72
2021/03/20 13:58:21;;;;;;;;;;;;;;;3.74;80.53;99550.13;1820932;78;20580;-72
2021/03/20 14:00:52;;;;;;;;;;;;;;;3.72;82.34;99550.84;1820926;78;20306;-73
2021/03/20 14:03:22;;;;;;;;;;;;;;;3.90;80.42;99543.03;1821168;78;21320;-72
2021/03/20 14:05:50;;;;;;;;;;;;;;;3.63;79.75;99549.75;1821538;78;20657;-71
2021/03/20 14:08:19;;;;;;;;;;;;;;;3.47;73.29;99548.86;1821153;78;20192;-70
2021/03/20 14:10:48;;;;;;;;;;;;;;;2.92;75.45;99561.06;1821089;78;20342;-72
2021/03/20 14:13:18;;;;;;;;;;;;;;;2.69;78.86;99555.31;1820904;78;20260;-72
2021/03/20 14:15:48;;;;;;;;;;;;;;;2.59;80.45;99549.09;1821097;78;21422;-72
2021/03/20 14:18:20;;;;;;;;;;;;;;;2.27;82.22;99548.00;1821233;78;20268;-72
2021/03/20 14:20:52;;;;;;;;;;;;;;;2.19;85.42;99547.69;1820818;78;20525;-71
2021/03/20 14:23:19;;;;;;;;;;;;;;;2.32;85.76;99547.70;1820485;78;20240;-72
2021/03/20 14:25:47;;;;;;;;;;;;;;;2.24;88.17;99545.25;1821272;78;20295;-72
2021/03/20 14:28:15;;;;;;;;;;;;;;;2.12;89.39;99552.14;1821295;78;21817;-71
2021/03/20 14:30:46;;;;;;;;;;;;;;;1.98;90.04;99548.62;1820901;78;20451;-72
2021/03/20 14:33:22;;;;;;;;;;;;;;;1.84;92.61;99542.98;1853617;77;20319;-74
2021/03/20 14:35:52;;;;;;;;;;;;;;;1.65;94.53;99549.30;1821417;78;20152;-71
2021/03/20 14:38:22;;;;;;;;;;;;;;;1.67;96.97;99547.78;1821851;78;21284;-72
2021/03/20 14:40:50;;;;;;;;;;;;;;;1.72;100.00;99551.98;1816151;78;20133;-71
2021/03/20 14:43:18;;;;;;;;;;;;;;;1.83;100.00;99551.41;1820897;78;20503;-72
2021/03/20 14:45:46;;;;;;;;;;;;;;;1.64;98.35;99552.13;1820466;78;20291;-72
2021/03/20 14:48:18;;;;;;;;;;;;;;;1.56;100.00;99554.42;1822325;78;20164;-71
2021/03/20 14:50:46;;;;;;;;;;;;;;;1.43;97.78;99548.56;1821740;78;22255;-72
2021/03/20 14:53:13;;;;;;;;;;;;;;;1.39;98.08;99549.14;1821638;78;20188;-72
2021/03/20 14:55:41;;;;;;;;;;;;;;;1.29;98.96;99554.77;1821340;78;20172;-72
2021/03/20 14:58:09;;;;;;;;;;;;;;;1.28;99.84;99552.64;1821694;78;20295;-70
2021/03/20 15:00:41;;;;;;;;;;;;;;;1.27;100.00;99555.47;1816867;78;20132;-72